This is the latest recevied weather packets stored in our database for station/object SQ5LTL-2. If no packets are shown the sender has not sent any weather packets the latest 10 day(s).
| Time | Temp. | Humidity | Pressure | Rain* | Wind** | Luminosity | Snow |
|---|---|---|---|---|---|---|---|
| 1777951527 | 11.67° C | 68% | 1012.2 hPa | 0 mm | - | 11 W/m² | - |
| 1777951227 | 11.67° C | 69% | 1012.2 hPa | 0 mm | - | 8 W/m² | - |
| 1777950924 | 11.11° C | 72% | 1012.1 hPa | 0 mm | - | 6 W/m² | - |
| 1777950623 | 10.56° C | 74% | 1012.3 hPa | 0 mm | - | 5 W/m² | - |
| 1777950322 | 10° C | 77% | 1012.2 hPa | 0 mm | - | 3 W/m² | - |
| 1777950020 | 8.89° C | 80% | 1012.2 hPa | 0 mm | - | 2 W/m² | - |
| 1777949719 | 9.44° C | 77% | 1012.2 hPa | 0 mm | - | 1 W/m² | - |
| 1777949418 | 10° C | 75% | 1012.2 hPa | 0 mm | - | 1 W/m² | - |
| 1777949116 | 10.56° C | 74% | 1012.1 hPa | 0 mm | - | 0 W/m² | - |
| 1777948834 | 11.11° C | 73% | 1012.2 hPa | 0 mm | - | 0 W/m² | - |
| 1777948533 | 11.11° C | 71% | 1012.3 hPa | 0 mm | - | 0 W/m² | - |
| 1777948231 | 11.11° C | 71% | 1012.3 hPa | 0 mm | - | 0 W/m² | - |
| 1777947930 | 11.11° C | 72% | 1012.2 hPa | 0 mm | - | 0 W/m² | - |
| 1777947629 | 11.11° C | 71% | 1012.2 hPa | 0 mm | - | 0 W/m² | - |
| 1777947327 | 10.56° C | 72% | 1012.4 hPa | 0 mm | - | 0 W/m² | - |
| 1777947026 | 10° C | 75% | 1012.2 hPa | 0 mm | - | 0 W/m² | - |
| 1777946724 | 9.44° C | 76% | 1012.3 hPa | 0 mm | - | 0 W/m² | - |
| 1777946423 | 8.89° C | 78% | 1012.4 hPa | 0 mm | - | 0 W/m² | - |
| 1777946121 | 8.89° C | 79% | 1012.4 hPa | 0 mm | - | 0 W/m² | - |
| 1777945820 | 8.89° C | 78% | 1012.4 hPa | 0 mm | - | 0 W/m² | - |
| 1777945518 | 8.89° C | 77% | 1012.5 hPa | 0 mm | - | 0 W/m² | - |
| 1777945217 | 9.44° C | 76% | 1012.4 hPa | 0 mm | - | 0 W/m² | - |
| 1777944936 | 9.44° C | 75% | 1012.5 hPa | 0 mm | - | 0 W/m² | - |
| 1777944635 | 8.89° C | 77% | 1012.4 hPa | 0 mm | - | 0 W/m² | - |
| 1777944333 | 8.89° C | 78% | 1012.6 hPa | 0 mm | - | 0 W/m² | - |
* Rain latest hour (hover to see other rain measurements)
** Current wind speed in m/s (hover to see current wind gust speed)